Salcha, AK (99714)

6:08 AM AKST on February 13, 2016 (GMT -0900)
Allen Army Air Field | | Change Station
CLOSE
Current Station
Airport
Location: Big Delta,
Elevation: 1306 ft
Nearby Weather Stations

Elev 1306 ft 63.99 °N, 145.72 °W | Updated 15 minutes ago

Clear
Clear
34 °F
Feels Like 25 °F
N
14
Wind Variable Wind from SE
Gusts 25 mph

Today
High -- | Low -- °F
--% Chance of Precip.
Yesterday
High -- | Low -- °F
Precip. -- in
Pressure 29.39 in
Visibility 10.0 miles
Clouds Clear
Windchill 25 °F
Dew Point 22 °F
Humidity 61%
Rainfall 0.00 in
Snow Depth Not available.
8:48 AM 5:06 PM
Waxing Crescent, 31% visible
METAR PABI 131453Z AUTO 13012G22KT 10SM CLR 01/M06 A2932 RMK AO2 PK WND 11028/1428 SLP951 T00111056 51006 TSNO
Pressure 29.39 in
Visibility 10.0 miles
Clouds Clear
Windchill 25 °F
Dew Point 22 °F
Humidity 61%
Rainfall 0.00 in
Snow Depth Not available.
8:48 AM 5:06 PM
Waxing Crescent, 31% visible
METAR PABI 131453Z AUTO 13012G22KT 10SM CLR 01/M06 A2932 RMK AO2 PK WND 11028/1428 SLP951 T00111056 51006 TSNO

10-Day Weather Forecast

Almanac

Astronomy

Feb. 13, 2016 Rise Set
Actual Time
Civil Twilight
Nautical Twilight
Astronomical Twilight
Moon
Length of Visible Light
Length of Day
Tomorrow will be .
, % of the Moon is Illuminated

Today's Extremes

State Highs State Lows

Community

WunderPhotos

Upload Photos

1,892,572 photos uploaded!

WunderBlog® & News

Nearby

Air Quality

  Air Quality AQ Index Pollutant
Not available.

Snow Depth

Station Depth Elevation

Earthquake Activity

City Distance Mag. Time & Date
Minimum magnitude displayed is 2.5.

Coastal Water Temperatures

Place Temperature

Stations

Nearby Weather Stations

Station Location Temp. Windchill Dew Point Humidity Wind Precip. Elev Updated Type
                   

Watches & Warnings

There are currently no watches in effect.